sensor_id;sensor_type;location;lat;lon;timestamp;P1;durP1;ratioP1;P2;durP2;ratioP2
85986;SDS011;76562;42.702;23.250;2024-02-26T00:02:20;11.57;;;10.37;;
85986;SDS011;76562;42.702;23.250;2024-02-26T00:04:48;11.60;;;9.93;;
85986;SDS011;76562;42.702;23.250;2024-02-26T00:07:16;12.87;;;10.80;;
85986;SDS011;76562;42.702;23.250;2024-02-26T00:09:44;15.60;;;11.03;;
85986;SDS011;76562;42.702;23.250;2024-02-26T00:12:13;11.83;;;10.17;;
85986;SDS011;76562;42.702;23.250;2024-02-26T00:14:41;12.90;;;10.73;;
85986;SDS011;76562;42.702;23.250;2024-02-26T00:17:13;14.23;;;10.30;;
85986;SDS011;76562;42.702;23.250;2024-02-26T00:19:41;11.73;;;9.80;;
85986;SDS011;76562;42.702;23.250;2024-02-26T00:22:09;12.30;;;10.33;;
85986;SDS011;76562;42.702;23.250;2024-02-26T00:24:39;12.60;;;10.13;;
85986;SDS011;76562;42.702;23.250;2024-02-26T00:27:07;12.37;;;10.50;;
85986;SDS011;76562;42.702;23.250;2024-02-26T00:29:36;13.63;;;10.20;;
85986;SDS011;76562;42.702;23.250;2024-02-26T00:32:04;12.20;;;9.97;;
85986;SDS011;76562;42.702;23.250;2024-02-26T00:34:34;11.83;;;9.90;;
85986;SDS011;76562;42.702;23.250;2024-02-26T00:37:03;13.27;;;10.50;;
85986;SDS011;76562;42.702;23.250;2024-02-26T00:39:31;11.60;;;9.23;;
85986;SDS011;76562;42.702;23.250;2024-02-26T00:41:59;12.27;;;10.07;;
85986;SDS011;76562;42.702;23.250;2024-02-26T00:44:27;12.67;;;10.17;;
85986;SDS011;76562;42.702;23.250;2024-02-26T00:46:55;12.60;;;10.40;;
85986;SDS011;76562;42.702;23.250;2024-02-26T00:49:24;13.93;;;10.57;;
85986;SDS011;76562;42.702;23.250;2024-02-26T00:51:53;14.00;;;9.87;;
85986;SDS011;76562;42.702;23.250;2024-02-26T00:54:22;11.83;;;10.10;;
85986;SDS011;76562;42.702;23.250;2024-02-26T00:56:50;12.10;;;10.53;;
85986;SDS011;76562;42.702;23.250;2024-02-26T00:59:18;12.23;;;10.47;;
85986;SDS011;76562;42.702;23.250;2024-02-26T01:01:46;12.80;;;10.70;;
85986;SDS011;76562;42.702;23.250;2024-02-26T01:04:15;12.13;;;10.37;;
85986;SDS011;76562;42.702;23.250;2024-02-26T01:06:43;13.63;;;10.83;;
85986;SDS011;76562;42.702;23.250;2024-02-26T01:09:13;13.03;;;11.40;;
85986;SDS011;76562;42.702;23.250;2024-02-26T01:11:41;14.53;;;10.67;;
85986;SDS011;76562;42.702;23.250;2024-02-26T01:14:09;14.07;;;11.70;;
85986;SDS011;76562;42.702;23.250;2024-02-26T01:16:37;13.07;;;10.60;;
85986;SDS011;76562;42.702;23.250;2024-02-26T01:19:06;15.43;;;11.23;;
85986;SDS011;76562;42.702;23.250;2024-02-26T01:21:34;12.83;;;11.13;;
85986;SDS011;76562;42.702;23.250;2024-02-26T01:24:02;11.80;;;10.57;;
85986;SDS011;76562;42.702;23.250;2024-02-26T01:26:32;13.40;;;11.50;;
85986;SDS011;76562;42.702;23.250;2024-02-26T01:29:00;12.97;;;11.50;;
85986;SDS011;76562;42.702;23.250;2024-02-26T01:31:29;12.00;;;10.63;;
85986;SDS011;76562;42.702;23.250;2024-02-26T01:33:57;13.23;;;10.20;;
85986;SDS011;76562;42.702;23.250;2024-02-26T01:36:26;12.87;;;11.37;;
85986;SDS011;76562;42.702;23.250;2024-02-26T01:38:54;13.17;;;11.27;;
85986;SDS011;76562;42.702;23.250;2024-02-26T01:41:22;14.10;;;11.43;;
85986;SDS011;76562;42.702;23.250;2024-02-26T01:43:51;12.27;;;10.97;;
85986;SDS011;76562;42.702;23.250;2024-02-26T01:46:19;13.90;;;11.23;;
85986;SDS011;76562;42.702;23.250;2024-02-26T01:48:48;13.80;;;11.33;;
85986;SDS011;76562;42.702;23.250;2024-02-26T01:51:17;14.60;;;11.87;;
85986;SDS011;76562;42.702;23.250;2024-02-26T01:53:45;12.67;;;11.27;;
85986;SDS011;76562;42.702;23.250;2024-02-26T01:56:14;12.97;;;11.63;;
85986;SDS011;76562;42.702;23.250;2024-02-26T01:58:44;15.23;;;12.10;;
85986;SDS011;76562;42.702;23.250;2024-02-26T02:01:14;14.30;;;11.73;;
85986;SDS011;76562;42.702;23.250;2024-02-26T02:03:45;16.03;;;12.00;;
85986;SDS011;76562;42.702;23.250;2024-02-26T02:06:13;14.40;;;11.27;;
85986;SDS011;76562;42.702;23.250;2024-02-26T02:08:42;14.80;;;12.40;;
85986;SDS011;76562;42.702;23.250;2024-02-26T02:11:11;14.57;;;12.40;;
85986;SDS011;76562;42.702;23.250;2024-02-26T02:13:41;13.97;;;11.60;;
85986;SDS011;76562;42.702;23.250;2024-02-26T02:16:09;15.33;;;11.43;;
85986;SDS011;76562;42.702;23.250;2024-02-26T02:18:39;13.63;;;12.17;;
85986;SDS011;76562;42.702;23.250;2024-02-26T02:21:08;14.40;;;11.47;;
85986;SDS011;76562;42.702;23.250;2024-02-26T02:23:36;15.83;;;13.10;;
85986;SDS011;76562;42.702;23.250;2024-02-26T02:26:05;14.27;;;12.27;;
85986;SDS011;76562;42.702;23.250;2024-02-26T02:28:33;16.60;;;12.67;;
85986;SDS011;76562;42.702;23.250;2024-02-26T02:31:02;14.43;;;12.77;;
85986;SDS011;76562;42.702;23.250;2024-02-26T02:33:30;14.63;;;12.37;;
85986;SDS011;76562;42.702;23.250;2024-02-26T02:35:59;13.77;;;11.57;;
85986;SDS011;76562;42.702;23.250;2024-02-26T02:38:29;16.40;;;12.00;;
85986;SDS011;76562;42.702;23.250;2024-02-26T02:40:58;13.63;;;11.97;;
85986;SDS011;76562;42.702;23.250;2024-02-26T02:43:27;12.50;;;11.10;;
85986;SDS011;76562;42.702;23.250;2024-02-26T02:45:55;15.60;;;12.23;;
85986;SDS011;76562;42.702;23.250;2024-02-26T02:48:23;15.90;;;11.57;;
85986;SDS011;76562;42.702;23.250;2024-02-26T02:50:51;14.83;;;12.43;;
85986;SDS011;76562;42.702;23.250;2024-02-26T02:53:19;15.43;;;13.17;;
85986;SDS011;76562;42.702;23.250;2024-02-26T02:55:49;14.70;;;12.37;;
85986;SDS011;76562;42.702;23.250;2024-02-26T02:58:17;13.73;;;12.10;;
85986;SDS011;76562;42.702;23.250;2024-02-26T03:00:45;15.50;;;12.30;;
85986;SDS011;76562;42.702;23.250;2024-02-26T03:03:13;13.47;;;11.73;;
85986;SDS011;76562;42.702;23.250;2024-02-26T03:05:42;14.43;;;12.53;;
85986;SDS011;76562;42.702;23.250;2024-02-26T03:08:10;16.40;;;13.17;;
85986;SDS011;76562;42.702;23.250;2024-02-26T03:10:38;16.47;;;13.00;;
85986;SDS011;76562;42.702;23.250;2024-02-26T03:13:08;20.73;;;13.77;;
85986;SDS011;76562;42.702;23.250;2024-02-26T03:15:36;16.67;;;12.97;;
85986;SDS011;76562;42.702;23.250;2024-02-26T03:18:05;15.67;;;12.40;;
85986;SDS011;76562;42.702;23.250;2024-02-26T03:20:33;16.43;;;12.97;;
85986;SDS011;76562;42.702;23.250;2024-02-26T03:23:01;16.03;;;12.97;;
85986;SDS011;76562;42.702;23.250;2024-02-26T03:25:29;14.47;;;12.97;;
85986;SDS011;76562;42.702;23.250;2024-02-26T03:27:57;14.87;;;13.30;;
85986;SDS011;76562;42.702;23.250;2024-02-26T03:30:27;14.60;;;13.10;;
85986;SDS011;76562;42.702;23.250;2024-02-26T03:32:55;16.30;;;12.90;;
85986;SDS011;76562;42.702;23.250;2024-02-26T03:35:23;16.90;;;13.60;;
85986;SDS011;76562;42.702;23.250;2024-02-26T03:37:52;15.07;;;13.47;;
85986;SDS011;76562;42.702;23.250;2024-02-26T03:40:20;16.23;;;12.37;;
85986;SDS011;76562;42.702;23.250;2024-02-26T03:42:48;15.40;;;12.43;;
85986;SDS011;76562;42.702;23.250;2024-02-26T03:45:16;15.97;;;13.50;;
85986;SDS011;76562;42.702;23.250;2024-02-26T03:47:46;14.57;;;12.67;;
85986;SDS011;76562;42.702;23.250;2024-02-26T03:50:14;14.80;;;11.67;;
85986;SDS011;76562;42.702;23.250;2024-02-26T03:52:43;16.73;;;13.10;;
85986;SDS011;76562;42.702;23.250;2024-02-26T03:55:11;14.00;;;12.03;;
85986;SDS011;76562;42.702;23.250;2024-02-26T03:57:39;13.63;;;12.23;;
85986;SDS011;76562;42.702;23.250;2024-02-26T04:00:07;15.90;;;13.20;;
85986;SDS011;76562;42.702;23.250;2024-02-26T04:02:37;14.97;;;12.60;;
85986;SDS011;76562;42.702;23.250;2024-02-26T04:05:10;16.90;;;13.13;;
85986;SDS011;76562;42.702;23.250;2024-02-26T04:07:38;15.07;;;12.47;;
85986;SDS011;76562;42.702;23.250;2024-02-26T04:10:08;15.63;;;13.10;;
85986;SDS011;76562;42.702;23.250;2024-02-26T04:12:38;16.03;;;13.27;;
85986;SDS011;76562;42.702;23.250;2024-02-26T04:15:07;17.43;;;12.73;;
85986;SDS011;76562;42.702;23.250;2024-02-26T04:17:36;16.30;;;13.17;;
85986;SDS011;76562;42.702;23.250;2024-02-26T04:20:06;16.40;;;12.73;;
85986;SDS011;76562;42.702;23.250;2024-02-26T04:22:37;17.10;;;13.13;;
85986;SDS011;76562;42.702;23.250;2024-02-26T04:25:06;15.23;;;12.90;;
85986;SDS011;76562;42.702;23.250;2024-02-26T04:27:34;15.30;;;13.13;;
85986;SDS011;76562;42.702;23.250;2024-02-26T04:30:03;15.37;;;13.67;;
85986;SDS011;76562;42.702;23.250;2024-02-26T04:32:31;20.23;;;14.30;;
85986;SDS011;76562;42.702;23.250;2024-02-26T04:35:01;16.13;;;13.87;;
85986;SDS011;76562;42.702;23.250;2024-02-26T04:37:30;16.50;;;13.07;;
85986;SDS011;76562;42.702;23.250;2024-02-26T04:39:59;16.80;;;12.70;;
85986;SDS011;76562;42.702;23.250;2024-02-26T04:42:29;18.63;;;12.57;;
85986;SDS011;76562;42.702;23.250;2024-02-26T04:44:57;18.57;;;14.37;;
85986;SDS011;76562;42.702;23.250;2024-02-26T04:47:25;16.43;;;14.17;;
85986;SDS011;76562;42.702;23.250;2024-02-26T04:49:53;18.53;;;14.37;;
85986;SDS011;76562;42.702;23.250;2024-02-26T04:52:22;20.03;;;14.27;;
85986;SDS011;76562;42.702;23.250;2024-02-26T04:54:50;20.00;;;14.80;;
85986;SDS011;76562;42.702;23.250;2024-02-26T04:57:20;18.40;;;14.03;;
85986;SDS011;76562;42.702;23.250;2024-02-26T04:59:49;15.90;;;14.07;;
85986;SDS011;76562;42.702;23.250;2024-02-26T05:02:17;17.50;;;14.37;;
85986;SDS011;76562;42.702;23.250;2024-02-26T05:04:45;17.13;;;14.23;;
85986;SDS011;76562;42.702;23.250;2024-02-26T05:07:13;17.73;;;13.53;;
85986;SDS011;76562;42.702;23.250;2024-02-26T05:09:44;18.57;;;14.13;;
85986;SDS011;76562;42.702;23.250;2024-02-26T05:12:12;15.63;;;13.93;;
85986;SDS011;76562;42.702;23.250;2024-02-26T05:14:42;15.07;;;13.07;;
85986;SDS011;76562;42.702;23.250;2024-02-26T05:17:10;14.73;;;13.13;;
85986;SDS011;76562;42.702;23.250;2024-02-26T05:19:38;16.00;;;12.93;;
85986;SDS011;76562;42.702;23.250;2024-02-26T05:22:06;16.83;;;13.77;;
85986;SDS011;76562;42.702;23.250;2024-02-26T05:24:37;20.30;;;15.57;;
85986;SDS011;76562;42.702;23.250;2024-02-26T05:27:05;17.40;;;15.30;;
85986;SDS011;76562;42.702;23.250;2024-02-26T05:29:33;19.67;;;14.70;;
85986;SDS011;76562;42.702;23.250;2024-02-26T05:32:03;18.97;;;15.00;;
85986;SDS011;76562;42.702;23.250;2024-02-26T05:34:32;17.77;;;14.73;;
85986;SDS011;76562;42.702;23.250;2024-02-26T05:37:00;16.20;;;14.43;;
85986;SDS011;76562;42.702;23.250;2024-02-26T05:39:28;20.80;;;15.63;;
85986;SDS011;76562;42.702;23.250;2024-02-26T05:41:56;17.77;;;14.67;;
85986;SDS011;76562;42.702;23.250;2024-02-26T05:44:26;19.57;;;16.17;;
85986;SDS011;76562;42.702;23.250;2024-02-26T05:46:54;19.00;;;15.17;;
85986;SDS011;76562;42.702;23.250;2024-02-26T05:49:25;20.03;;;15.80;;
85986;SDS011;76562;42.702;23.250;2024-02-26T05:51:53;17.63;;;14.77;;
85986;SDS011;76562;42.702;23.250;2024-02-26T05:54:21;16.33;;;14.60;;
85986;SDS011;76562;42.702;23.250;2024-02-26T05:56:49;18.63;;;15.03;;
85986;SDS011;76562;42.702;23.250;2024-02-26T05:59:18;16.57;;;13.57;;
85986;SDS011;76562;42.702;23.250;2024-02-26T06:01:46;15.87;;;14.17;;
85986;SDS011;76562;42.702;23.250;2024-02-26T06:04:14;20.07;;;14.73;;
85986;SDS011;76562;42.702;23.250;2024-02-26T06:06:45;16.13;;;14.10;;
85986;SDS011;76562;42.702;23.250;2024-02-26T06:09:13;16.77;;;14.37;;
85986;SDS011;76562;42.702;23.250;2024-02-26T06:11:42;17.27;;;13.63;;
85986;SDS011;76562;42.702;23.250;2024-02-26T06:14:10;15.03;;;13.47;;
85986;SDS011;76562;42.702;23.250;2024-02-26T06:16:39;17.90;;;14.00;;
85986;SDS011;76562;42.702;23.250;2024-02-26T06:19:07;14.07;;;12.57;;
85986;SDS011;76562;42.702;23.250;2024-02-26T06:21:39;15.93;;;12.83;;
85986;SDS011;76562;42.702;23.250;2024-02-26T06:24:09;14.90;;;12.90;;
85986;SDS011;76562;42.702;23.250;2024-02-26T06:26:37;15.17;;;12.53;;
85986;SDS011;76562;42.702;23.250;2024-02-26T06:29:05;14.20;;;12.67;;
85986;SDS011;76562;42.702;23.250;2024-02-26T06:31:33;17.53;;;12.83;;
85986;SDS011;76562;42.702;23.250;2024-02-26T06:34:01;16.10;;;13.57;;
85986;SDS011;76562;42.702;23.250;2024-02-26T06:36:30;17.73;;;14.53;;
85986;SDS011;76562;42.702;23.250;2024-02-26T06:38:59;16.30;;;13.90;;
85986;SDS011;76562;42.702;23.250;2024-02-26T06:41:29;15.50;;;13.37;;
85986;SDS011;76562;42.702;23.250;2024-02-26T06:43:57;16.27;;;13.47;;
85986;SDS011;76562;42.702;23.250;2024-02-26T06:46:25;17.77;;;14.50;;
85986;SDS011;76562;42.702;23.250;2024-02-26T06:48:57;17.67;;;14.30;;
85986;SDS011;76562;42.702;23.250;2024-02-26T06:51:25;17.80;;;14.87;;
85986;SDS011;76562;42.702;23.250;2024-02-26T06:53:53;16.47;;;14.70;;
85986;SDS011;76562;42.702;23.250;2024-02-26T06:56:22;18.37;;;15.60;;
85986;SDS011;76562;42.702;23.250;2024-02-26T06:58:51;18.23;;;15.80;;
85986;SDS011;76562;42.702;23.250;2024-02-26T07:01:19;18.80;;;15.17;;
85986;SDS011;76562;42.702;23.250;2024-02-26T07:03:47;19.10;;;16.30;;
85986;SDS011;76562;42.702;23.250;2024-02-26T07:06:16;19.90;;;15.53;;
85986;SDS011;76562;42.702;23.250;2024-02-26T07:08:44;20.70;;;15.80;;
85986;SDS011;76562;42.702;23.250;2024-02-26T07:11:12;21.27;;;16.80;;
85986;SDS011;76562;42.702;23.250;2024-02-26T07:13:41;20.63;;;18.23;;
85986;SDS011;76562;42.702;23.250;2024-02-26T07:16:10;24.10;;;19.67;;
85986;SDS011;76562;42.702;23.250;2024-02-26T07:18:38;23.70;;;21.03;;
85986;SDS011;76562;42.702;23.250;2024-02-26T07:21:07;22.90;;;19.60;;
85986;SDS011;76562;42.702;23.250;2024-02-26T07:23:36;28.07;;;20.87;;
85986;SDS011;76562;42.702;23.250;2024-02-26T07:26:04;23.80;;;20.17;;
85986;SDS011;76562;42.702;23.250;2024-02-26T07:28:32;22.07;;;18.97;;
85986;SDS011;76562;42.702;23.250;2024-02-26T07:31:00;21.77;;;19.17;;
85986;SDS011;76562;42.702;23.250;2024-02-26T07:33:30;25.20;;;18.87;;
85986;SDS011;76562;42.702;23.250;2024-02-26T07:35:58;20.73;;;16.67;;
85986;SDS011;76562;42.702;23.250;2024-02-26T07:38:27;20.53;;;16.67;;
85986;SDS011;76562;42.702;23.250;2024-02-26T07:41:08;20.77;;;17.13;;
85986;SDS011;76562;42.702;23.250;2024-02-26T07:43:37;19.40;;;15.50;;
85986;SDS011;76562;42.702;23.250;2024-02-26T07:46:05;20.50;;;16.23;;
85986;SDS011;76562;42.702;23.250;2024-02-26T07:48:34;22.53;;;16.67;;
85986;SDS011;76562;42.702;23.250;2024-02-26T07:51:03;18.80;;;15.87;;
85986;SDS011;76562;42.702;23.250;2024-02-26T07:53:31;19.57;;;15.67;;
85986;SDS011;76562;42.702;23.250;2024-02-26T07:56:00;20.83;;;16.57;;
85986;SDS011;76562;42.702;23.250;2024-02-26T07:58:28;17.77;;;15.50;;
85986;SDS011;76562;42.702;23.250;2024-02-26T08:00:55;20.60;;;15.97;;
85986;SDS011;76562;42.702;23.250;2024-02-26T08:03:23;18.70;;;15.33;;
85986;SDS011;76562;42.702;23.250;2024-02-26T08:05:53;19.27;;;15.60;;
85986;SDS011;76562;42.702;23.250;2024-02-26T08:08:22;19.83;;;15.57;;
85986;SDS011;76562;42.702;23.250;2024-02-26T08:10:50;21.77;;;16.27;;
85986;SDS011;76562;42.702;23.250;2024-02-26T08:13:18;18.80;;;15.10;;
85986;SDS011;76562;42.702;23.250;2024-02-26T08:15:46;20.53;;;15.73;;
85986;SDS011;76562;42.702;23.250;2024-02-26T08:18:14;20.23;;;15.73;;
85986;SDS011;76562;42.702;23.250;2024-02-26T08:20:43;19.00;;;16.37;;
85986;SDS011;76562;42.702;23.250;2024-02-26T08:23:12;19.50;;;15.57;;
85986;SDS011;76562;42.702;23.250;2024-02-26T08:25:40;18.47;;;15.43;;
85986;SDS011;76562;42.702;23.250;2024-02-26T08:28:09;20.90;;;17.03;;
85986;SDS011;76562;42.702;23.250;2024-02-26T08:30:39;18.73;;;16.33;;
85986;SDS011;76562;42.702;23.250;2024-02-26T08:33:07;21.40;;;15.93;;
85986;SDS011;76562;42.702;23.250;2024-02-26T08:35:36;18.43;;;15.43;;
85986;SDS011;76562;42.702;23.250;2024-02-26T08:38:05;21.77;;;16.03;;
85986;SDS011;76562;42.702;23.250;2024-02-26T08:40:34;20.83;;;17.20;;
85986;SDS011;76562;42.702;23.250;2024-02-26T08:43:03;18.33;;;16.33;;
85986;SDS011;76562;42.702;23.250;2024-02-26T08:45:31;22.13;;;17.97;;
85986;SDS011;76562;42.702;23.250;2024-02-26T08:47:59;19.70;;;17.17;;
85986;SDS011;76562;42.702;23.250;2024-02-26T08:50:27;20.20;;;17.33;;
85986;SDS011;76562;42.702;23.250;2024-02-26T08:52:56;21.40;;;17.57;;
85986;SDS011;76562;42.702;23.250;2024-02-26T08:55:24;21.37;;;17.30;;
85986;SDS011;76562;42.702;23.250;2024-02-26T08:57:52;21.50;;;17.60;;
85986;SDS011;76562;42.702;23.250;2024-02-26T09:00:21;23.37;;;17.53;;
85986;SDS011;76562;42.702;23.250;2024-02-26T09:02:49;20.53;;;17.23;;
85986;SDS011;76562;42.702;23.250;2024-02-26T09:05:17;21.97;;;17.20;;
85986;SDS011;76562;42.702;23.250;2024-02-26T09:07:45;21.77;;;17.23;;
85986;SDS011;76562;42.702;23.250;2024-02-26T09:10:14;24.90;;;18.27;;
85986;SDS011;76562;42.702;23.250;2024-02-26T09:12:42;23.43;;;18.80;;
85986;SDS011;76562;42.702;23.250;2024-02-26T09:15:12;21.57;;;18.57;;
85986;SDS011;76562;42.702;23.250;2024-02-26T09:17:40;20.13;;;17.93;;
85986;SDS011;76562;42.702;23.250;2024-02-26T09:20:09;23.10;;;18.60;;
85986;SDS011;76562;42.702;23.250;2024-02-26T09:22:37;21.93;;;17.43;;
85986;SDS011;76562;42.702;23.250;2024-02-26T09:25:06;22.97;;;17.97;;
85986;SDS011;76562;42.702;23.250;2024-02-26T09:27:34;23.47;;;18.63;;
85986;SDS011;76562;42.702;23.250;2024-02-26T09:30:07;22.53;;;17.77;;
85986;SDS011;76562;42.702;23.250;2024-02-26T09:32:37;23.20;;;18.27;;
85986;SDS011;76562;42.702;23.250;2024-02-26T09:35:06;20.73;;;17.20;;
85986;SDS011;76562;42.702;23.250;2024-02-26T09:37:35;17.77;;;15.87;;
85986;SDS011;76562;42.702;23.250;2024-02-26T09:40:03;20.87;;;16.17;;
85986;SDS011;76562;42.702;23.250;2024-02-26T09:42:33;18.07;;;15.30;;
85986;SDS011;76562;42.702;23.250;2024-02-26T09:45:04;20.63;;;14.67;;
85986;SDS011;76562;42.702;23.250;2024-02-26T09:47:35;15.17;;;12.80;;
85986;SDS011;76562;42.702;23.250;2024-02-26T09:50:06;17.63;;;12.90;;
85986;SDS011;76562;42.702;23.250;2024-02-26T09:52:39;13.87;;;11.47;;
85986;SDS011;76562;42.702;23.250;2024-02-26T09:55:09;14.27;;;11.00;;
85986;SDS011;76562;42.702;23.250;2024-02-26T09:57:38;13.70;;;10.33;;
85986;SDS011;76562;42.702;23.250;2024-02-26T10:00:10;11.80;;;8.60;;
85986;SDS011;76562;42.702;23.250;2024-02-26T10:02:47;10.13;;;7.80;;
85986;SDS011;76562;42.702;23.250;2024-02-26T10:05:16;9.60;;;7.77;;
85986;SDS011;76562;42.702;23.250;2024-02-26T10:07:46;9.50;;;7.57;;
85986;SDS011;76562;42.702;23.250;2024-02-26T10:10:14;9.03;;;6.93;;
85986;SDS011;76562;42.702;23.250;2024-02-26T10:12:43;10.83;;;6.93;;
85986;SDS011;76562;42.702;23.250;2024-02-26T10:15:11;9.53;;;7.00;;
85986;SDS011;76562;42.702;23.250;2024-02-26T10:17:39;9.17;;;6.50;;
85986;SDS011;76562;42.702;23.250;2024-02-26T10:20:13;9.37;;;7.07;;
85986;SDS011;76562;42.702;23.250;2024-02-26T10:22:44;8.07;;;6.57;;
85986;SDS011;76562;42.702;23.250;2024-02-26T10:25:13;8.00;;;6.17;;
85986;SDS011;76562;42.702;23.250;2024-02-26T10:27:41;9.00;;;5.80;;
85986;SDS011;76562;42.702;23.250;2024-02-26T10:30:15;6.03;;;5.10;;
85986;SDS011;76562;42.702;23.250;2024-02-26T10:32:45;8.53;;;6.37;;
85986;SDS011;76562;42.702;23.250;2024-02-26T10:35:16;7.37;;;5.40;;
85986;SDS011;76562;42.702;23.250;2024-02-26T10:37:45;5.43;;;4.60;;
85986;SDS011;76562;42.702;23.250;2024-02-26T10:40:14;5.77;;;4.93;;
85986;SDS011;76562;42.702;23.250;2024-02-26T10:42:43;7.03;;;5.17;;
85986;SDS011;76562;42.702;23.250;2024-02-26T10:45:12;6.37;;;5.10;;
85986;SDS011;76562;42.702;23.250;2024-02-26T10:47:41;6.90;;;5.10;;
85986;SDS011;76562;42.702;23.250;2024-02-26T10:50:09;5.40;;;4.47;;
85986;SDS011;76562;42.702;23.250;2024-02-26T10:52:43;6.97;;;4.80;;
85986;SDS011;76562;42.702;23.250;2024-02-26T10:55:13;5.40;;;4.47;;
85986;SDS011;76562;42.702;23.250;2024-02-26T10:57:46;5.13;;;4.33;;
85986;SDS011;76562;42.702;23.250;2024-02-26T11:00:16;8.70;;;4.70;;
85986;SDS011;76562;42.702;23.250;2024-02-26T11:02:45;5.63;;;4.20;;
85986;SDS011;76562;42.702;23.250;2024-02-26T11:05:14;5.13;;;4.40;;
85986;SDS011;76562;42.702;23.250;2024-02-26T11:07:44;6.90;;;4.33;;
85986;SDS011;76562;42.702;23.250;2024-02-26T11:10:13;5.07;;;4.37;;
85986;SDS011;76562;42.702;23.250;2024-02-26T11:12:43;7.20;;;4.77;;
85986;SDS011;76562;42.702;23.250;2024-02-26T11:15:14;7.37;;;5.03;;
85986;SDS011;76562;42.702;23.250;2024-02-26T11:17:44;4.93;;;4.33;;
85986;SDS011;76562;42.702;23.250;2024-02-26T11:20:15;6.67;;;4.40;;
85986;SDS011;76562;42.702;23.250;2024-02-26T11:22:46;5.50;;;4.80;;
85986;SDS011;76562;42.702;23.250;2024-02-26T11:25:15;5.57;;;4.70;;
85986;SDS011;76562;42.702;23.250;2024-02-26T11:27:44;4.53;;;4.10;;
85986;SDS011;76562;42.702;23.250;2024-02-26T11:30:17;5.17;;;4.63;;
85986;SDS011;76562;42.702;23.250;2024-02-26T11:32:47;5.23;;;4.60;;
85986;SDS011;76562;42.702;23.250;2024-02-26T11:35:16;4.50;;;4.10;;
85986;SDS011;76562;42.702;23.250;2024-02-26T11:37:54;6.57;;;4.87;;
85986;SDS011;76562;42.702;23.250;2024-02-26T11:40:23;5.43;;;4.40;;
85986;SDS011;76562;42.702;23.250;2024-02-26T11:42:52;7.03;;;4.40;;
85986;SDS011;76562;42.702;23.250;2024-02-26T11:48:21;5.67;;;4.30;;
85986;SDS011;76562;42.702;23.250;2024-02-26T11:50:52;6.17;;;4.70;;
85986;SDS011;76562;42.702;23.250;2024-02-26T11:53:23;5.90;;;4.37;;
85986;SDS011;76562;42.702;23.250;2024-02-26T11:58:40;5.80;;;4.57;;
85986;SDS011;76562;42.702;23.250;2024-02-26T12:04:04;5.50;;;4.20;;
85986;SDS011;76562;42.702;23.250;2024-02-26T12:06:39;4.67;;;3.70;;
85986;SDS011;76562;42.702;23.250;2024-02-26T12:09:11;6.53;;;4.30;;
85986;SDS011;76562;42.702;23.250;2024-02-26T12:11:41;4.97;;;3.83;;
85986;SDS011;76562;42.702;23.250;2024-02-26T12:14:10;6.67;;;4.37;;
85986;SDS011;76562;42.702;23.250;2024-02-26T12:16:39;6.17;;;4.20;;
85986;SDS011;76562;42.702;23.250;2024-02-26T12:19:09;5.33;;;4.30;;
85986;SDS011;76562;42.702;23.250;2024-02-26T12:21:38;4.80;;;3.90;;
85986;SDS011;76562;42.702;23.250;2024-02-26T12:24:09;5.60;;;4.30;;
85986;SDS011;76562;42.702;23.250;2024-02-26T12:26:40;6.10;;;4.00;;
85986;SDS011;76562;42.702;23.250;2024-02-26T12:29:08;4.83;;;3.83;;
85986;SDS011;76562;42.702;23.250;2024-02-26T12:31:37;4.70;;;3.73;;
85986;SDS011;76562;42.702;23.250;2024-02-26T12:34:07;5.67;;;3.77;;
85986;SDS011;76562;42.702;23.250;2024-02-26T12:36:37;4.57;;;3.73;;
85986;SDS011;76562;42.702;23.250;2024-02-26T12:39:07;4.90;;;4.40;;
85986;SDS011;76562;42.702;23.250;2024-02-26T12:41:37;5.23;;;3.47;;
85986;SDS011;76562;42.702;23.250;2024-02-26T12:44:08;5.07;;;3.83;;
85986;SDS011;76562;42.702;23.250;2024-02-26T12:46:36;5.20;;;3.87;;
85986;SDS011;76562;42.702;23.250;2024-02-26T12:49:04;5.20;;;3.73;;
85986;SDS011;76562;42.702;23.250;2024-02-26T12:51:33;4.17;;;3.50;;
85986;SDS011;76562;42.702;23.250;2024-02-26T12:54:01;5.30;;;3.53;;
85986;SDS011;76562;42.702;23.250;2024-02-26T12:56:30;5.77;;;3.90;;
85986;SDS011;76562;42.702;23.250;2024-02-26T12:58:59;4.27;;;3.63;;
85986;SDS011;76562;42.702;23.250;2024-02-26T13:01:29;4.40;;;3.80;;
85986;SDS011;76562;42.702;23.250;2024-02-26T13:03:58;3.57;;;3.23;;
85986;SDS011;76562;42.702;23.250;2024-02-26T13:06:28;4.90;;;3.97;;
85986;SDS011;76562;42.702;23.250;2024-02-26T13:08:56;5.53;;;3.43;;
85986;SDS011;76562;42.702;23.250;2024-02-26T13:11:26;4.77;;;3.60;;
85986;SDS011;76562;42.702;23.250;2024-02-26T13:13:57;6.00;;;3.87;;
85986;SDS011;76562;42.702;23.250;2024-02-26T13:16:26;4.77;;;3.73;;
85986;SDS011;76562;42.702;23.250;2024-02-26T13:18:56;6.83;;;4.40;;
85986;SDS011;76562;42.702;23.250;2024-02-26T13:21:24;4.17;;;3.30;;
85986;SDS011;76562;42.702;23.250;2024-02-26T13:23:52;4.50;;;3.73;;
85986;SDS011;76562;42.702;23.250;2024-02-26T13:26:22;3.87;;;3.37;;
85986;SDS011;76562;42.702;23.250;2024-02-26T13:29:00;7.17;;;3.87;;
85986;SDS011;76562;42.702;23.250;2024-02-26T13:31:30;4.30;;;3.90;;
85986;SDS011;76562;42.702;23.250;2024-02-26T13:34:00;5.30;;;3.27;;
85986;SDS011;76562;42.702;23.250;2024-02-26T13:36:29;4.67;;;3.60;;
85986;SDS011;76562;42.702;23.250;2024-02-26T13:38:57;4.43;;;3.70;;
85986;SDS011;76562;42.702;23.250;2024-02-26T13:41:26;4.90;;;3.80;;
85986;SDS011;76562;42.702;23.250;2024-02-26T13:43:54;4.67;;;3.57;;
85986;SDS011;76562;42.702;23.250;2024-02-26T13:46:24;4.20;;;3.10;;
85986;SDS011;76562;42.702;23.250;2024-02-26T13:48:53;3.93;;;3.37;;
85986;SDS011;76562;42.702;23.250;2024-02-26T13:51:23;3.67;;;3.30;;
85986;SDS011;76562;42.702;23.250;2024-02-26T13:53:51;5.70;;;3.83;;
85986;SDS011;76562;42.702;23.250;2024-02-26T13:56:19;5.60;;;3.70;;
85986;SDS011;76562;42.702;23.250;2024-02-26T13:58:47;5.17;;;3.53;;
85986;SDS011;76562;42.702;23.250;2024-02-26T14:01:15;5.67;;;3.37;;
85986;SDS011;76562;42.702;23.250;2024-02-26T14:03:44;4.07;;;3.67;;
85986;SDS011;76562;42.702;23.250;2024-02-26T14:06:12;5.30;;;3.50;;
85986;SDS011;76562;42.702;23.250;2024-02-26T14:08:42;4.33;;;3.37;;
85986;SDS011;76562;42.702;23.250;2024-02-26T14:11:10;4.07;;;3.43;;
85986;SDS011;76562;42.702;23.250;2024-02-26T14:13:38;4.50;;;3.47;;
85986;SDS011;76562;42.702;23.250;2024-02-26T14:16:09;4.47;;;3.50;;
85986;SDS011;76562;42.702;23.250;2024-02-26T14:18:38;5.27;;;3.40;;
85986;SDS011;76562;42.702;23.250;2024-02-26T14:21:07;7.33;;;3.57;;
85986;SDS011;76562;42.702;23.250;2024-02-26T14:23:35;4.67;;;3.87;;
85986;SDS011;76562;42.702;23.250;2024-02-26T14:26:05;4.10;;;3.40;;
85986;SDS011;76562;42.702;23.250;2024-02-26T14:28:33;6.83;;;3.40;;
85986;SDS011;76562;42.702;23.250;2024-02-26T14:31:03;7.07;;;3.70;;
85986;SDS011;76562;42.702;23.250;2024-02-26T14:33:32;3.70;;;3.30;;
85986;SDS011;76562;42.702;23.250;2024-02-26T14:36:01;3.60;;;3.30;;